Time;durP1;ratioP1;P1;durP2;ratioP2;P2;SDS_P1;SDS_P2;PMS_P1;PMS_P2;Temp;Humidity;BMP_temperature;BMP_pressure;BME280_temperature;BME280_humidity;BME280_pressure;Samples;Min_cycle;Max_cycle;Signal;HPM_P1;HPM_P2
2022/03/10 00:02:24;;;;;;;14.73;8.40;;;;;;;;;;5068462;28;20397;-45
2022/03/10 00:04:51;;;;;;;13.57;7.88;;;;;;;;;;5069721;28;20031;-44
2022/03/10 00:07:17;;;;;;;13.82;8.10;;;;;;;;;;5068769;28;20042;-46
2022/03/10 00:09:43;;;;;;;15.27;8.65;;;;;;;;;;5069087;28;20150;-48
2022/03/10 00:12:09;;;;;;;14.85;8.40;;;;;;;;;;5069282;28;20025;-46
2022/03/10 00:14:35;;;;;;;12.57;8.13;;;;;;;;;;5069074;28;20036;-44
2022/03/10 00:17:01;;;;;;;10.77;7.72;;;;;;;;;;5069666;28;20052;-45
2022/03/10 00:19:27;;;;;;;11.80;7.80;;;;;;;;;;5068900;28;20644;-48
2022/03/10 00:21:53;;;;;;;12.25;7.70;;;;;;;;;;5069564;28;20028;-47
2022/03/10 00:24:20;;;;;;;14.45;7.78;;;;;;;;;;5068648;28;20056;-46
2022/03/10 00:26:46;;;;;;;12.35;7.72;;;;;;;;;;5068652;28;20060;-46
2022/03/10 00:29:12;;;;;;;13.57;7.85;;;;;;;;;;5068606;28;20111;-50
2022/03/10 00:31:40;;;;;;;12.85;8.35;;;;;;;;;;5068810;28;20028;-48
2022/03/10 00:34:06;;;;;;;12.38;7.20;;;;;;;;;;5068678;28;20029;-49
2022/03/10 00:36:32;;;;;;;13.48;8.35;;;;;;;;;;5068541;28;20028;-48
2022/03/10 00:38:58;;;;;;;12.68;7.80;;;;;;;;;;5068179;28;20103;-47
2022/03/10 00:41:24;;;;;;;14.45;8.57;;;;;;;;;;5067644;28;20106;-48
2022/03/10 00:43:50;;;;;;;13.75;7.78;;;;;;;;;;5068102;28;20086;-51
2022/03/10 00:46:16;;;;;;;11.00;7.20;;;;;;;;;;5067890;28;20020;-51
2022/03/10 00:48:42;;;;;;;16.25;8.57;;;;;;;;;;5067407;28;20086;-44
2022/03/10 00:51:08;;;;;;;15.38;8.32;;;;;;;;;;5068131;28;20040;-52
2022/03/10 00:53:34;;;;;;;13.93;8.10;;;;;;;;;;5067772;28;20033;-50
2022/03/10 00:56:01;;;;;;;11.50;7.15;;;;;;;;;;5067572;28;21033;-50
2022/03/10 00:58:27;;;;;;;12.10;7.97;;;;;;;;;;5067334;28;20071;-45
2022/03/10 01:00:53;;;;;;;12.23;7.45;;;;;;;;;;5067157;28;20502;-47
2022/03/10 01:03:19;;;;;;;13.02;7.78;;;;;;;;;;5067689;28;20064;-45
2022/03/10 01:05:46;;;;;;;10.98;7.07;;;;;;;;;;5067106;28;20128;-50
2022/03/10 01:08:12;;;;;;;10.15;6.88;;;;;;;;;;5070656;28;20835;-53
2022/03/10 01:10:38;;;;;;;12.00;6.80;;;;;;;;;;5070853;28;20542;-55
2022/03/10 01:13:11;;;;;;;11.90;7.85;;;;;;;;;;5071572;28;20028;-48
2022/03/10 01:15:37;;;;;;;12.00;7.28;;;;;;;;;;5071310;28;20044;-44
2022/03/10 01:18:03;;;;;;;13.23;7.57;;;;;;;;;;5072022;28;20062;-46
2022/03/10 01:20:29;;;;;;;12.05;7.10;;;;;;;;;;5071766;28;20020;-44
2022/03/10 01:22:55;;;;;;;12.55;8.13;;;;;;;;;;5072221;28;20028;-48
2022/03/10 01:25:21;;;;;;;10.95;6.70;;;;;;;;;;5072009;28;20436;-52
2022/03/10 01:27:47;;;;;;;12.75;7.07;;;;;;;;;;5072193;28;20359;-51
2022/03/10 01:30:14;;;;;;;13.55;7.68;;;;;;;;;;5071647;28;20402;-48
2022/03/10 01:32:40;;;;;;;13.07;7.10;;;;;;;;;;5071924;28;20056;-48
2022/03/10 01:35:07;;;;;;;12.48;7.03;;;;;;;;;;5071586;28;20036;-46
2022/03/10 01:37:36;;;;;;;11.68;6.88;;;;;;;;;;5072025;28;20028;-48
2022/03/10 01:40:03;;;;;;;11.80;7.32;;;;;;;;;;5072102;28;20036;-48
2022/03/10 01:42:29;;;;;;;11.68;6.63;;;;;;;;;;5072082;28;20096;-48
2022/03/10 01:44:56;;;;;;;11.55;7.20;;;;;;;;;;5071912;28;20386;-50
2022/03/10 01:47:22;;;;;;;10.63;6.68;;;;;;;;;;5070018;28;20123;-49
2022/03/10 01:49:48;;;;;;;12.52;7.15;;;;;;;;;;5071732;28;20052;-52
2022/03/10 01:52:15;;;;;;;12.68;6.97;;;;;;;;;;5071349;28;20104;-51
2022/03/10 01:54:41;;;;;;;12.07;7.22;;;;;;;;;;5071317;28;20048;-52
2022/03/10 01:57:07;;;;;;;11.15;6.70;;;;;;;;;;5071605;28;20107;-50
2022/03/10 01:59:34;;;;;;;11.60;7.05;;;;;;;;;;5071292;28;20610;-52
2022/03/10 02:02:00;;;;;;;10.63;6.82;;;;;;;;;;5071578;28;20115;-48
2022/03/10 02:04:26;;;;;;;12.20;6.38;;;;;;;;;;5071098;28;20414;-46
2022/03/10 02:06:53;;;;;;;12.85;7.15;;;;;;;;;;5071279;28;20060;-47
2022/03/10 02:12:05;;;;;;;11.02;6.47;;;;;;;;;;5070893;28;20456;-51
2022/03/10 02:17:22;;;;;;;9.65;6.00;;;;;;;;;;5071138;28;20035;-50
2022/03/10 02:19:49;;;;;;;11.77;6.80;;;;;;;;;;5070400;28;20132;-49
2022/03/10 02:22:15;;;;;;;12.30;6.82;;;;;;;;;;5070611;28;20051;-46
2022/03/10 02:24:42;;;;;;;10.52;6.55;;;;;;;;;;5070853;28;20115;-48
2022/03/10 02:27:28;;;;;;;9.40;6.60;;;;;;;;;;5070983;28;20131;-47
2022/03/10 02:29:55;;;;;;;12.13;6.53;;;;;;;;;;5071148;28;20721;-48
2022/03/10 02:32:21;;;;;;;12.43;6.57;;;;;;;;;;5070559;28;20477;-44
2022/03/10 02:34:48;;;;;;;12.02;7.05;;;;;;;;;;5070626;28;20085;-49
2022/03/10 02:37:14;;;;;;;12.45;7.05;;;;;;;;;;5070498;28;20832;-49
2022/03/10 02:39:40;;;;;;;10.25;7.03;;;;;;;;;;5070498;28;20451;-45
2022/03/10 02:42:07;;;;;;;10.93;7.63;;;;;;;;;;5070377;28;20027;-44
2022/03/10 02:44:33;;;;;;;10.10;6.28;;;;;;;;;;5070918;28;20066;-44
2022/03/10 02:46:59;;;;;;;9.93;6.25;;;;;;;;;;5070687;28;20032;-45
2022/03/10 02:49:25;;;;;;;9.43;6.18;;;;;;;;;;5070413;28;20459;-47
2022/03/10 02:51:52;;;;;;;10.50;6.47;;;;;;;;;;5070597;28;20031;-47
2022/03/10 02:54:18;;;;;;;9.43;5.75;;;;;;;;;;5051885;28;20047;-45
2022/03/10 02:56:44;;;;;;;8.40;6.05;;;;;;;;;;5070357;28;20082;-47
2022/03/10 02:59:10;;;;;;;10.50;6.60;;;;;;;;;;5070565;28;20032;-45
2022/03/10 03:01:37;;;;;;;10.07;6.32;;;;;;;;;;5069787;28;20025;-47
2022/03/10 03:04:03;;;;;;;10.82;6.38;;;;;;;;;;5070072;28;20719;-46
2022/03/10 03:06:29;;;;;;;10.07;6.60;;;;;;;;;;5070057;28;20111;-47
2022/03/10 03:08:55;;;;;;;10.52;6.35;;;;;;;;;;5070301;28;20095;-47
2022/03/10 03:11:21;;;;;;;10.02;5.97;;;;;;;;;;5069976;28;20032;-51
2022/03/10 03:13:47;;;;;;;12.65;6.85;;;;;;;;;;5069921;28;20504;-50
2022/03/10 03:16:13;;;;;;;11.15;6.30;;;;;;;;;;5070574;28;20132;-47
2022/03/10 03:18:39;;;;;;;11.50;6.90;;;;;;;;;;5069201;28;20885;-50
2022/03/10 03:21:05;;;;;;;10.32;6.38;;;;;;;;;;5069897;28;20104;-45
2022/03/10 03:23:31;;;;;;;10.48;6.50;;;;;;;;;;5069385;28;20025;-50
2022/03/10 03:25:57;;;;;;;9.93;6.45;;;;;;;;;;5069884;28;20025;-45
2022/03/10 03:28:24;;;;;;;10.20;5.85;;;;;;;;;;5069589;28;20082;-47
2022/03/10 03:30:50;;;;;;;10.35;6.30;;;;;;;;;;5068696;28;20048;-43
2022/03/10 03:33:17;;;;;;;12.20;6.75;;;;;;;;;;5069601;28;20129;-43
2022/03/10 03:35:43;;;;;;;9.13;6.35;;;;;;;;;;5069319;28;20082;-48
2022/03/10 03:38:09;;;;;;;10.38;6.68;;;;;;;;;;5069712;28;20025;-48
2022/03/10 03:40:35;;;;;;;10.00;6.28;;;;;;;;;;5069036;28;20729;-50
2022/03/10 03:43:01;;;;;;;10.63;6.90;;;;;;;;;;5069798;28;20437;-49
2022/03/10 03:45:28;;;;;;;10.82;6.68;;;;;;;;;;5069561;28;20071;-49
2022/03/10 03:47:54;;;;;;;10.82;7.05;;;;;;;;;;5069667;28;20178;-49
2022/03/10 03:50:21;;;;;;;9.02;6.55;;;;;;;;;;5069190;28;20099;-50
2022/03/10 03:52:47;;;;;;;9.63;6.40;;;;;;;;;;5069612;28;20636;-48
2022/03/10 03:55:14;;;;;;;10.48;6.40;;;;;;;;;;5069124;28;20171;-48
2022/03/10 03:57:40;;;;;;;9.15;6.45;;;;;;;;;;5069252;28;20060;-50
2022/03/10 04:00:07;;;;;;;11.55;6.78;;;;;;;;;;5069052;28;20479;-46
2022/03/10 04:02:33;;;;;;;11.10;6.55;;;;;;;;;;5069346;28;20480;-50
2022/03/10 04:04:59;;;;;;;13.60;6.38;;;;;;;;;;5069844;28;20123;-46
2022/03/10 04:07:25;;;;;;;8.73;5.88;;;;;;;;;;5068965;28;20048;-49
2022/03/10 04:09:51;;;;;;;10.68;6.00;;;;;;;;;;5069201;28;20032;-46
2022/03/10 04:12:17;;;;;;;12.13;6.53;;;;;;;;;;5069442;28;20024;-46
2022/03/10 04:14:43;;;;;;;11.90;6.40;;;;;;;;;;5069472;28;20190;-46
2022/03/10 04:17:09;;;;;;;9.43;6.07;;;;;;;;;;5068731;28;20530;-47
2022/03/10 04:19:35;;;;;;;11.18;6.70;;;;;;;;;;5068907;28;20052;-46
2022/03/10 04:22:02;;;;;;;12.13;6.50;;;;;;;;;;5069318;28;20090;-49
2022/03/10 04:24:28;;;;;;;9.75;5.53;;;;;;;;;;5068857;28;20123;-47
2022/03/10 04:26:54;;;;;;;11.48;6.43;;;;;;;;;;5068354;28;20020;-49
2022/03/10 04:29:20;;;;;;;11.93;5.90;;;;;;;;;;5068916;28;20029;-45
2022/03/10 04:31:46;;;;;;;10.90;6.18;;;;;;;;;;5068855;28;20386;-49
2022/03/10 04:34:12;;;;;;;9.93;6.38;;;;;;;;;;5068714;28;20082;-47
2022/03/10 04:36:39;;;;;;;10.75;6.78;;;;;;;;;;5068485;28;20462;-48
2022/03/10 04:39:05;;;;;;;10.07;5.80;;;;;;;;;;5068843;28;20021;-49
2022/03/10 04:41:31;;;;;;;14.85;6.60;;;;;;;;;;5065818;28;20831;-49
2022/03/10 04:43:57;;;;;;;11.57;5.72;;;;;;;;;;5068414;28;20107;-48
2022/03/10 04:46:23;;;;;;;10.45;6.30;;;;;;;;;;5072986;28;20435;-51
2022/03/10 04:48:49;;;;;;;17.48;10.75;;;;;;;;;;5073428;28;20079;-49
2022/03/10 04:51:15;;;;;;;23.17;14.80;;;;;;;;;;5072412;28;20051;-49
2022/03/10 04:53:41;;;;;;;19.77;14.40;;;;;;;;;;5072476;28;20068;-48
2022/03/10 04:56:16;;;;;;;25.92;16.75;;;;;;;;;;5073288;28;20028;-44
2022/03/10 04:58:52;;;;;;;29.50;16.25;;;;;;;;;;5070522;28;20033;-47
2022/03/10 05:01:26;;;;;;;29.30;17.90;;;;;;;;;;5062570;28;20033;-46
2022/03/10 05:07:07;;;;;;;30.48;15.23;;;;;;;;;;5038454;28;20411;-46
2022/03/10 05:09:42;;;;;;;28.05;16.92;;;;;;;;;;5072132;28;20772;-47
2022/03/10 05:12:09;;;;;;;29.52;17.35;;;;;;;;;;5071558;28;20036;-46
2022/03/10 05:14:36;;;;;;;31.48;17.20;;;;;;;;;;5071810;28;20475;-46
2022/03/10 05:17:02;;;;;;;26.27;16.30;;;;;;;;;;5072296;28;20025;-46
2022/03/10 05:19:28;;;;;;;27.30;18.45;;;;;;;;;;5070583;28;20024;-52
2022/03/10 05:21:54;;;;;;;28.60;17.33;;;;;;;;;;5072461;28;20028;-51
2022/03/10 05:24:20;;;;;;;31.15;18.00;;;;;;;;;;5071602;28;20032;-48
2022/03/10 05:26:47;;;;;;;23.65;16.27;;;;;;;;;;5072042;28;20024;-47
2022/03/10 05:29:13;;;;;;;24.55;16.27;;;;;;;;;;5071662;28;20032;-47
2022/03/10 05:31:40;;;;;;;26.10;15.88;;;;;;;;;;5071802;28;20449;-50
2022/03/10 05:34:07;;;;;;;28.38;17.55;;;;;;;;;;5071206;28;20115;-46
2022/03/10 05:36:39;;;;;;;29.92;16.27;;;;;;;;;;5072385;28;20043;-48
2022/03/10 05:39:05;;;;;;;26.05;15.15;;;;;;;;;;5071650;28;20363;-48
2022/03/10 05:41:32;;;;;;;23.55;15.65;;;;;;;;;;5071838;28;20120;-48
2022/03/10 05:43:58;;;;;;;23.23;14.85;;;;;;;;;;5071485;28;20043;-51
2022/03/10 05:46:24;;;;;;;21.05;14.48;;;;;;;;;;5071344;28;20029;-44
2022/03/10 05:48:50;;;;;;;20.88;14.30;;;;;;;;;;5071204;28;20103;-44
2022/03/10 05:51:16;;;;;;;24.38;13.82;;;;;;;;;;5071594;28;20143;-44
2022/03/10 05:53:43;;;;;;;26.50;14.40;;;;;;;;;;5069584;28;20182;-50
2022/03/10 05:56:09;;;;;;;29.25;13.68;;;;;;;;;;5071749;28;20028;-49
2022/03/10 05:58:36;;;;;;;20.73;12.73;;;;;;;;;;5071360;28;20021;-47
2022/03/10 06:01:02;;;;;;;22.88;13.43;;;;;;;;;;5067803;28;20536;-48
2022/03/10 06:03:28;;;;;;;30.33;15.20;;;;;;;;;;5071367;28;20020;-47
2022/03/10 06:05:55;;;;;;;28.40;13.70;;;;;;;;;;5070344;28;20139;-51
2022/03/10 06:08:21;;;;;;;30.63;13.65;;;;;;;;;;5071394;28;20157;-47
2022/03/10 06:10:47;;;;;;;24.60;13.55;;;;;;;;;;5070773;28;20445;-47
2022/03/10 06:13:13;;;;;;;29.55;11.98;;;;;;;;;;5071422;28;20539;-43
2022/03/10 06:15:39;;;;;;;27.23;12.30;;;;;;;;;;5069870;28;20570;-49
2022/03/10 06:18:05;;;;;;;20.92;11.98;;;;;;;;;;5057873;28;20112;-46
2022/03/10 06:20:33;;;;;;;30.52;13.10;;;;;;;;;;5062674;28;20184;-47
2022/03/10 06:22:59;;;;;;;19.85;11.18;;;;;;;;;;5070570;28;20033;-48
2022/03/10 06:25:25;;;;;;;23.27;11.02;;;;;;;;;;5070694;28;20025;-46
2022/03/10 06:27:51;;;;;;;24.83;10.63;;;;;;;;;;5070900;28;20501;-46
2022/03/10 06:30:17;;;;;;;19.27;11.70;;;;;;;;;;5067805;28;20029;-46
2022/03/10 06:32:43;;;;;;;22.30;10.77;;;;;;;;;;5068921;28;20024;-48
2022/03/10 06:35:09;;;;;;;23.35;9.70;;;;;;;;;;5059891;28;20120;-49
2022/03/10 06:37:36;;;;;;;20.05;10.48;;;;;;;;;;5070030;28;20016;-48
2022/03/10 06:40:02;;;;;;;24.40;10.05;;;;;;;;;;5061260;28;20506;-47
2022/03/10 06:42:30;;;;;;;18.45;9.60;;;;;;;;;;5069271;28;20017;-46
2022/03/10 06:44:56;;;;;;;19.73;9.93;;;;;;;;;;5070008;28;20082;-47
2022/03/10 06:47:22;;;;;;;18.98;9.18;;;;;;;;;;5069042;28;20047;-48
2022/03/10 06:49:48;;;;;;;18.58;9.45;;;;;;;;;;5070086;28;20027;-48
2022/03/10 06:52:15;;;;;;;20.05;9.85;;;;;;;;;;5068971;28;20455;-45
2022/03/10 06:54:41;;;;;;;16.70;9.50;;;;;;;;;;5069505;28;20036;-51
2022/03/10 06:57:08;;;;;;;18.08;9.05;;;;;;;;;;5068935;28;20540;-45
2022/03/10 06:59:34;;;;;;;16.65;8.68;;;;;;;;;;5069642;28;20038;-50
2022/03/10 07:02:00;;;;;;;17.45;8.48;;;;;;;;;;5068873;28;20395;-50
2022/03/10 07:04:26;;;;;;;17.42;8.70;;;;;;;;;;5068640;28;20421;-46
2022/03/10 07:06:52;;;;;;;16.52;8.60;;;;;;;;;;5068708;28;20049;-44
2022/03/10 07:09:19;;;;;;;16.77;7.88;;;;;;;;;;5069336;28;20032;-46
2022/03/10 07:11:45;;;;;;;15.40;8.35;;;;;;;;;;5068948;28;20378;-46
2022/03/10 07:14:11;;;;;;;16.02;7.55;;;;;;;;;;5069093;28;20068;-51
2022/03/10 07:16:37;;;;;;;18.17;8.13;;;;;;;;;;5068419;28;20147;-44
2022/03/10 07:19:05;;;;;;;16.35;8.45;;;;;;;;;;5066389;28;20616;-46
2022/03/10 07:21:31;;;;;;;13.55;8.18;;;;;;;;;;5066731;28;20028;-46
2022/03/10 07:23:57;;;;;;;13.32;7.60;;;;;;;;;;5064796;28;20066;-50
2022/03/10 07:26:23;;;;;;;17.70;8.10;;;;;;;;;;5066974;28;20017;-55
2022/03/10 07:28:50;;;;;;;19.65;8.38;;;;;;;;;;5067556;28;20161;-49
2022/03/10 07:31:16;;;;;;;19.67;8.13;;;;;;;;;;5067136;28;20021;-49
2022/03/10 07:33:42;;;;;;;16.77;7.63;;;;;;;;;;5065825;28;20128;-50
2022/03/10 07:36:12;;;;;;;14.85;7.85;;;;;;;;;;5066888;28;20103;-49
2022/03/10 07:38:38;;;;;;;16.27;7.93;;;;;;;;;;5066832;28;20437;-49
2022/03/10 07:41:04;;;;;;;16.85;7.45;;;;;;;;;;5067277;28;20262;-51
2022/03/10 07:43:30;;;;;;;10.82;6.97;;;;;;;;;;5066138;28;20104;-47
2022/03/10 07:45:56;;;;;;;12.30;7.20;;;;;;;;;;5067952;28;20131;-52
2022/03/10 07:48:22;;;;;;;13.45;7.40;;;;;;;;;;5067662;28;20482;-52
2022/03/10 07:50:48;;;;;;;13.45;7.03;;;;;;;;;;5067834;28;20020;-50
2022/03/10 07:53:14;;;;;;;18.05;7.22;;;;;;;;;;5067884;28;20029;-51
2022/03/10 07:55:41;;;;;;;14.63;7.50;;;;;;;;;;5068197;28;20033;-51
2022/03/10 07:58:07;;;;;;;17.20;8.48;;;;;;;;;;5066204;28;20035;-49
2022/03/10 08:00:34;;;;;;;24.42;9.05;;;;;;;;;;5065696;28;20454;-48
2022/03/10 08:03:00;;;;;;;16.80;7.40;;;;;;;;;;5062551;28;20028;-50
2022/03/10 08:05:26;;;;;;;20.42;7.63;;;;;;;;;;5064578;28;20531;-47
2022/03/10 08:07:52;;;;;;;24.10;10.60;;;;;;;;;;5065337;28;20067;-50
2022/03/10 08:10:18;;;;;;;17.52;8.05;;;;;;;;;;5067258;28;20059;-46
2022/03/10 08:12:44;;;;;;;22.73;8.55;;;;;;;;;;5062201;28;20858;-47
2022/03/10 08:15:10;;;;;;;25.02;13.13;;;;;;;;;;5062765;28;20063;-43
2022/03/10 08:17:37;;;;;;;22.17;15.20;;;;;;;;;;5042742;28;20063;-45
2022/03/10 08:20:04;;;;;;;23.23;16.33;;;;;;;;;;5060375;28;20501;-45
2022/03/10 08:22:30;;;;;;;25.25;16.38;;;;;;;;;;5053797;28;20108;-50
2022/03/10 08:24:56;;;;;;;29.90;17.13;;;;;;;;;;5066871;28;20028;-47
2022/03/10 08:27:22;;;;;;;30.30;18.23;;;;;;;;;;5066994;28;20032;-48
2022/03/10 08:29:48;;;;;;;25.45;16.52;;;;;;;;;;5064702;28;20040;-48
2022/03/10 08:32:15;;;;;;;26.23;16.88;;;;;;;;;;5066836;28;20037;-52
2022/03/10 08:34:41;;;;;;;28.75;16.92;;;;;;;;;;5066999;28;20033;-49
2022/03/10 08:37:07;;;;;;;23.63;15.13;;;;;;;;;;5060765;28;20124;-49
2022/03/10 08:39:34;;;;;;;26.13;16.40;;;;;;;;;;5061466;28;20373;-49
2022/03/10 08:42:00;;;;;;;25.42;15.38;;;;;;;;;;5067708;28;20386;-50
2022/03/10 08:44:26;;;;;;;27.33;15.88;;;;;;;;;;5067496;28;20608;-51
2022/03/10 08:46:52;;;;;;;22.88;14.95;;;;;;;;;;5064005;28;20432;-49
2022/03/10 08:49:18;;;;;;;30.20;15.07;;;;;;;;;;5063526;28;20636;-46
2022/03/10 08:51:45;;;;;;;30.92;14.65;;;;;;;;;;5060188;28;20050;-50
2022/03/10 08:54:12;;;;;;;25.50;14.00;;;;;;;;;;5056378;28;20504;-46
2022/03/10 08:56:39;;;;;;;31.38;14.65;;;;;;;;;;5056377;28;20037;-50
2022/03/10 08:59:05;;;;;;;25.17;13.57;;;;;;;;;;5056987;28;20809;-51
2022/03/10 09:01:31;;;;;;;26.13;14.38;;;;;;;;;;5054540;28;20025;-50
2022/03/10 09:03:57;;;;;;;26.92;12.38;;;;;;;;;;5056307;28;20044;-51
2022/03/10 09:06:24;;;;;;;21.55;13.75;;;;;;;;;;5053843;28;21036;-47
2022/03/10 09:08:50;;;;;;;22.33;13.15;;;;;;;;;;5057819;28;20038;-50
2022/03/10 09:11:17;;;;;;;21.77;12.88;;;;;;;;;;5057017;28;20108;-47
2022/03/10 09:13:49;;;;;;;17.85;11.23;;;;;;;;;;5054589;28;20036;-49
2022/03/10 09:16:16;;;;;;;20.13;12.27;;;;;;;;;;5055215;28;20056;-49
2022/03/10 09:18:43;;;;;;;29.98;12.13;;;;;;;;;;5057409;28;20893;-49
2022/03/10 09:21:10;;;;;;;19.08;12.23;;;;;;;;;;5055661;28;20861;-51
2022/03/10 09:23:36;;;;;;;21.10;12.10;;;;;;;;;;5054361;28;20398;-49
2022/03/10 09:26:03;;;;;;;21.13;10.68;;;;;;;;;;5055920;28;20043;-49
2022/03/10 09:28:29;;;;;;;20.75;11.23;;;;;;;;;;5057824;28;20083;-49
2022/03/10 09:30:55;;;;;;;25.27;11.93;;;;;;;;;;5059249;28;20476;-51
2022/03/10 09:33:21;;;;;;;17.63;10.55;;;;;;;;;;5059234;28;20112;-48
2022/03/10 09:35:47;;;;;;;19.88;9.85;;;;;;;;;;5056015;28;20044;-50
2022/03/10 09:38:13;;;;;;;16.65;9.50;;;;;;;;;;5070442;28;20028;-50
2022/03/10 09:40:39;;;;;;;17.58;9.48;;;;;;;;;;5060221;28;20115;-47
2022/03/10 09:43:05;;;;;;;16.17;9.80;;;;;;;;;;5067580;28;20024;-51
2022/03/10 09:45:32;;;;;;;16.75;9.40;;;;;;;;;;5055980;28;20398;-49
2022/03/10 09:47:58;;;;;;;16.50;9.88;;;;;;;;;;5046379;28;20052;-50
2022/03/10 09:50:24;;;;;;;20.42;9.65;;;;;;;;;;5075655;28;20736;-49
2022/03/10 09:52:50;;;;;;;18.30;9.77;;;;;;;;;;5079831;28;20490;-51
2022/03/10 09:55:17;;;;;;;19.00;9.98;;;;;;;;;;5070927;28;20093;-49
2022/03/10 09:57:44;;;;;;;14.30;8.85;;;;;;;;;;5066699;28;20492;-51
2022/03/10 10:00:11;;;;;;;14.65;8.60;;;;;;;;;;5069492;28;20032;-48
2022/03/10 10:02:40;;;;;;;14.98;8.88;;;;;;;;;;5068061;28;20524;-51
2022/03/10 10:05:26;;;;;;;16.38;8.88;;;;;;;;;;5060323;28;20029;-47
2022/03/10 10:08:01;;;;;;;13.40;7.47;;;;;;;;;;5068092;28;20124;-48
2022/03/10 10:10:28;;;;;;;14.75;8.85;;;;;;;;;;5063684;28;20052;-51
2022/03/10 10:12:54;;;;;;;14.95;8.80;;;;;;;;;;5069985;28;20828;-49
2022/03/10 10:15:20;;;;;;;13.85;8.13;;;;;;;;;;5054541;28;20051;-48
2022/03/10 10:17:55;;;;;;;16.30;7.93;;;;;;;;;;5059818;28;20161;-49
2022/03/10 10:20:21;;;;;;;11.98;7.90;;;;;;;;;;5066729;28;20029;-45
2022/03/10 10:22:48;;;;;;;11.85;7.03;;;;;;;;;;5067536;28;20912;-45
2022/03/10 10:25:19;;;;;;;13.10;7.82;;;;;;;;;;5070132;28;20039;-47
2022/03/10 10:27:49;;;;;;;13.10;6.65;;;;;;;;;;5057162;28;20119;-46
2022/03/10 10:30:15;;;;;;;13.65;7.07;;;;;;;;;;5069895;28;20044;-48
2022/03/10 10:32:52;;;;;;;19.08;7.95;;;;;;;;;;5063227;28;20075;-50
2022/03/10 10:35:21;;;;;;;15.32;7.40;;;;;;;;;;5067290;28;20033;-45
2022/03/10 10:37:49;;;;;;;12.60;6.40;;;;;;;;;;5063000;28;20144;-48
2022/03/10 10:40:21;;;;;;;12.10;6.22;;;;;;;;;;5061266;28;20017;-45
2022/03/10 10:42:47;;;;;;;20.35;6.70;;;;;;;;;;5069710;28;20070;-47
2022/03/10 10:45:42;;;;;;;14.13;6.63;;;;;;;;;;5064089;28;20450;-43
2022/03/10 10:48:10;;;;;;;11.75;6.22;;;;;;;;;;5047583;28;20410;-44
2022/03/10 10:50:38;;;;;;;12.00;6.30;;;;;;;;;;5068463;28;20020;-50
2022/03/10 10:53:04;;;;;;;13.27;5.78;;;;;;;;;;5061933;28;20025;-46
2022/03/10 10:55:31;;;;;;;11.30;6.00;;;;;;;;;;5069044;28;20032;-45
2022/03/10 10:57:57;;;;;;;11.25;6.15;;;;;;;;;;5068076;28;20111;-46
2022/03/10 11:00:24;;;;;;;14.38;6.28;;;;;;;;;;5071166;28;20059;-49
2022/03/10 11:02:51;;;;;;;9.63;5.50;;;;;;;;;;5075987;28;20028;-47
2022/03/10 11:05:18;;;;;;;10.65;5.85;;;;;;;;;;5071179;28;20494;-47
2022/03/10 11:07:44;;;;;;;16.05;5.90;;;;;;;;;;5065917;28;20048;-46
2022/03/10 11:10:11;;;;;;;14.55;6.75;;;;;;;;;;5062089;28;20032;-46
2022/03/10 11:12:40;;;;;;;11.95;6.45;;;;;;;;;;5068383;28;20032;-50
2022/03/10 11:15:07;;;;;;;13.82;5.85;;;;;;;;;;5067951;28;20442;-48
2022/03/10 11:17:38;;;;;;;11.05;6.10;;;;;;;;;;5065010;28;20154;-46
2022/03/10 11:20:07;;;;;;;10.40;5.20;;;;;;;;;;5067767;28;20083;-47
2022/03/10 11:22:52;;;;;;;9.93;5.72;;;;;;;;;;5067154;28;20024;-51
2022/03/10 11:25:21;;;;;;;10.85;5.55;;;;;;;;;;5066919;28;20474;-49
2022/03/10 11:27:51;;;;;;;9.35;5.72;;;;;;;;;;5067238;28;20031;-51
2022/03/10 11:30:17;;;;;;;8.80;5.18;;;;;;;;;;5063851;28;20032;-51
2022/03/10 11:32:59;;;;;;;9.52;4.82;;;;;;;;;;5060420;28;20030;-46
2022/03/10 11:35:29;;;;;;;10.05;5.22;;;;;;;;;;5056371;28;20036;-52
2022/03/10 11:37:56;;;;;;;14.07;4.93;;;;;;;;;;5060580;28;20024;-49
2022/03/10 11:40:42;;;;;;;13.68;6.07;;;;;;;;;;5067498;28;20077;-49
2022/03/10 11:43:09;;;;;;;9.70;4.57;;;;;;;;;;5044926;28;20029;-48
2022/03/10 11:45:35;;;;;;;11.50;4.68;;;;;;;;;;5067194;28;20027;-50
2022/03/10 11:48:19;;;;;;;11.43;5.18;;;;;;;;;;5063221;28;20032;-50
2022/03/10 11:50:45;;;;;;;13.65;5.82;;;;;;;;;;5066772;28;20024;-50
2022/03/10 11:53:12;;;;;;;12.30;4.78;;;;;;;;;;5067481;28;20530;-46
2022/03/10 11:55:38;;;;;;;11.63;5.05;;;;;;;;;;5064882;28;20060;-50
2022/03/10 11:58:05;;;;;;;8.90;4.82;;;;;;;;;;5059312;28;20032;-49
2022/03/10 12:00:51;;;;;;;11.68;4.78;;;;;;;;;;5067437;28;20604;-44
2022/03/10 12:03:19;;;;;;;14.52;5.28;;;;;;;;;;5067352;28;20062;-45
2022/03/10 12:05:55;;;;;;;9.93;4.70;;;;;;;;;;5062172;28;20112;-48
2022/03/10 12:08:23;;;;;;;12.20;5.18;;;;;;;;;;5058013;28;20059;-50
2022/03/10 12:10:49;;;;;;;12.07;4.90;;;;;;;;;;5066276;28;20037;-47
2022/03/10 12:13:23;;;;;;;8.93;4.65;;;;;;;;;;5067046;28;20016;-44
2022/03/10 12:15:50;;;;;;;10.50;5.00;;;;;;;;;;5069264;28;20037;-49
2022/03/10 12:18:17;;;;;;;11.05;5.00;;;;;;;;;;5066812;28;20421;-50
2022/03/10 12:20:44;;;;;;;18.83;6.00;;;;;;;;;;5067082;28;20033;-51
2022/03/10 12:23:15;;;;;;;15.90;4.70;;;;;;;;;;5066208;28;20039;-47
2022/03/10 12:26:20;;;;;;;12.50;4.93;;;;;;;;;;5047357;28;20041;-50
2022/03/10 12:28:50;;;;;;;10.98;4.53;;;;;;;;;;4951583;28;20030;-47
2022/03/10 12:31:18;;;;;;;9.85;4.82;;;;;;;;;;4956318;28;20442;-52
2022/03/10 12:34:01;;;;;;;14.68;5.28;;;;;;;;;;5009906;28;20033;-49
2022/03/10 12:36:27;;;;;;;12.07;4.35;;;;;;;;;;5066686;28;20047;-48
2022/03/10 12:38:53;;;;;;;10.57;4.55;;;;;;;;;;5064380;28;20028;-52
2022/03/10 12:41:20;;;;;;;19.55;7.20;;;;;;;;;;5067297;28;20028;-53
2022/03/10 12:43:53;;;;;;;15.93;6.47;;;;;;;;;;5062144;28;20028;-45
2022/03/10 12:46:20;;;;;;;16.40;6.63;;;;;;;;;;5066377;28;20017;-49
2022/03/10 12:49:05;;;;;;;13.63;5.78;;;;;;;;;;5063224;28;20046;-49
2022/03/10 12:51:33;;;;;;;18.20;5.63;;;;;;;;;;5062550;28;20063;-47
2022/03/10 12:53:59;;;;;;;11.32;5.68;;;;;;;;;;5063999;28;20029;-50
2022/03/10 12:56:26;;;;;;;16.17;5.32;;;;;;;;;;5065276;28;20039;-45
2022/03/10 12:58:53;;;;;;;14.95;5.13;;;;;;;;;;5057737;28;20045;-51
2022/03/10 13:01:19;;;;;;;24.85;6.32;;;;;;;;;;5062461;28;20920;-49
2022/03/10 13:03:48;;;;;;;12.77;4.80;;;;;;;;;;5067827;28;20033;-47
2022/03/10 13:06:18;;;;;;;12.15;5.68;;;;;;;;;;5068391;28;20043;-44
2022/03/10 13:08:49;;;;;;;12.10;5.35;;;;;;;;;;5063700;28;20020;-47
2022/03/10 13:11:19;;;;;;;14.20;5.25;;;;;;;;;;5067855;28;20028;-44
2022/03/10 13:13:46;;;;;;;14.73;5.72;;;;;;;;;;5068840;28;20036;-45
2022/03/10 13:16:12;;;;;;;11.43;5.05;;;;;;;;;;5070154;28;20029;-49
2022/03/10 13:18:42;;;;;;;14.73;4.90;;;;;;;;;;5069273;28;20028;-49
2022/03/10 13:21:08;;;;;;;11.07;4.78;;;;;;;;;;5069550;28;20043;-51
2022/03/10 13:23:35;;;;;;;10.30;4.40;;;;;;;;;;5069050;28;20035;-48
2022/03/10 13:26:01;;;;;;;11.27;5.00;;;;;;;;;;5070154;28;20200;-49
2022/03/10 13:28:28;;;;;;;8.98;4.68;;;;;;;;;;5069740;28;20032;-49
2022/03/10 13:30:55;;;;;;;9.65;4.47;;;;;;;;;;5069461;28;20494;-47
2022/03/10 13:33:25;;;;;;;19.92;5.05;;;;;;;;;;5070386;28;20548;-49
2022/03/10 13:35:56;;;;;;;;;;;;;;;;;;5070806;28;20036;-49
2022/03/10 13:38:23;;;;;;;9.93;4.22;;;;;;;;;;5070634;28;20022;-49
2022/03/10 13:40:51;;;;;;;8.85;4.07;;;;;;;;;;5069823;28;20107;-49
2022/03/10 13:43:24;;;;;;;13.95;4.90;;;;;;;;;;5070466;28;20131;-49
2022/03/10 13:45:50;;;;;;;10.90;4.75;;;;;;;;;;5069637;28;20039;-49
2022/03/10 13:48:21;;;;;;;13.98;5.05;;;;;;;;;;5069708;28;20119;-50
2022/03/10 13:50:48;;;;;;;9.02;4.38;;;;;;;;;;5070048;28;20090;-49
2022/03/10 13:53:15;;;;;;;10.00;4.20;;;;;;;;;;5069839;28;20028;-49
2022/03/10 13:55:45;;;;;;;10.80;4.18;;;;;;;;;;5069577;28;20043;-51
2022/03/10 13:58:12;;;;;;;7.72;3.83;;;;;;;;;;5069591;28;20552;-46
2022/03/10 14:00:46;;;;;;;6.95;4.07;;;;;;;;;;5057704;28;20028;-46
2022/03/10 14:03:16;;;;;;;9.60;3.72;;;;;;;;;;5050414;28;20044;-48
2022/03/10 14:05:43;;;;;;;12.70;4.43;;;;;;;;;;5056045;28;20037;-45
2022/03/10 14:08:21;;;;;;;20.50;4.53;;;;;;;;;;5060137;28;20052;-48
2022/03/10 14:10:49;;;;;;;8.35;4.13;;;;;;;;;;5057098;28;20029;-46
2022/03/10 14:13:15;;;;;;;10.32;4.18;;;;;;;;;;5058707;28;20033;-48
2022/03/10 14:15:43;;;;;;;12.32;4.55;;;;;;;;;;5056231;28;20045;-50
2022/03/10 14:18:13;;;;;;;7.00;4.10;;;;;;;;;;5059507;28;20124;-46
2022/03/10 14:20:39;;;;;;;10.82;4.55;;;;;;;;;;5056491;28;20079;-50
2022/03/10 14:23:07;;;;;;;11.45;4.30;;;;;;;;;;5058030;28;20060;-46
2022/03/10 14:25:46;;;;;;;8.68;3.83;;;;;;;;;;5057281;28;20099;-48
2022/03/10 14:28:14;;;;;;;15.13;4.50;;;;;;;;;;5059631;28;20032;-51
2022/03/10 14:30:40;;;;;;;8.55;3.95;;;;;;;;;;5057752;28;20025;-51
2022/03/10 14:33:06;;;;;;;8.57;4.18;;;;;;;;;;5058744;28;20028;-51
2022/03/10 14:35:35;;;;;;;7.55;3.67;;;;;;;;;;5057208;28;20032;-45
2022/03/10 14:38:01;;;;;;;10.20;3.75;;;;;;;;;;5060491;28;20120;-48
2022/03/10 14:40:27;;;;;;;9.57;4.65;;;;;;;;;;5058543;28;20044;-46